メインページ
METAR-TAF:

METAR-TAF

空港 :

カイエンヌ, フランス領ギアナ

カイエンヌ・フェリックス・エブエ国際空港

緯度: 04-50N, 経度: 052-22W, 海抜: 105m

現時点の気象観測

当レポートは22分前の01:30(UTC)に作成
無風
気温 26°C
湿度 94%
気圧 1013 hPa
視程10km以上
高度1700ftの雲はほとんどない
高度7800ftの千切れ雲あり
高度8800ftの曇り

METAR: SOCA 260130Z AUTO 00000KT 9999 FEW017 BKN078 OVC088 26/25 Q1013 NOSIG

時間: 22:52 (01:52 UTC)

予報

当レポートは2時間52分前の23:00(UTC)に作成
予報は26日の 00時(UTC)から 26日の 24時(UTC)まで有効
変向風 2kt
視程10km以上
高度2000ftの雲はほとんどない
確率 30% :
26日の 04時(UTC)から 26日の 18時(UTC)まで一時的に
視程: 3000m
高度1200ftの雲はほとんどない, 塔状積雲.
にわか雨
26日の 1300時(UTC)から
東/北東の風 6kt
視程10km以上
高度2800ftの雲は散在している
高度6000ftの雲は散在している

TAF: SOCA 252300Z 2600/2624 VRB02KT 9999 FEW020 PROB30 TEMPO 2604/2618 3000 SHRA FEW012TCU FM261300 07006KT 9999 SCT028 SCT060

4,000以上の空港の気象観測と天気予報(METAR報とTAF報)

利用可能な観測所は地図上に黄色い丸と赤い丸で示す。

丸の上にカーソルを重ねると観測所名を参照できる。

次にクリックすると気象観測と天気予報を参照できる。

マップの切り替え:黒色「×」印の緑ボタンをクリックして拡大、「-」印の緑ボタンをクリックして縮小、緑色の三角印をクリックして隣りの地図に切り替え


METAR-TAF: